Language selection

Features

My Weather Profile Weather Topics  | 

Atlantic - Newfoundland: Past 24 Hour Conditions

 

Blanc-Sablon Airport

09:00 PM AST 18 January 2020
Disclaimer

This table is a summary of hourly weather conditions for the past 24 hours.
Please note that these observations might not always be representative of weather conditions over their associated marine area.

Date / Time
(AST)
Wind(knots) Conditions Visibility(km) Pressure(kPa) Air tempC) Relative humidity(%) Dew pointC) Wind Chill
18 January 2020
21:00 W 12 gust 19 Clear 24 101.5 -18 59 -25 -29
20:00 WNW 10 gust 19 Clear 24 101.4 -18 58 -24 -28
19:00 WNW 9 gust 19 Clear 24 101.4 -17 56 -24 -26
18:00 WNW 11 gust 19 Clear 24 101.3 -17 56 -24 -27
17:00 W 8 Mainly Clear 24 101.3 -17 55 -24 -25
16:00 WNW 15 gust 26 Mainly Sunny 24 101.1 -17 52 -24 -28
15:00 WNW 18 gust 24 Mainly Sunny 24 101.0 -16 49 -25 -28
14:00 WNW 12 gust 17 Mainly Sunny 24 100.9 -16 50 -24 -26
13:00 WNW 10 gust 17 Mainly Sunny 24 100.9 -17 51 -24 -26
12:00 WNW 16 gust 23 Mainly Sunny 24 100.9 -18 54 -25 -29
11:00 WNW 13 gust 18 Mainly Sunny 24 100.8 -19 59 -25 -30
10:00 WNW 12 gust 19 Mainly Sunny 24 100.8 -20 61 -26 -31
9:00 WNW 2 gust 17 Mainly Sunny 24 100.7 -20 60 -26 -22
8:00 NW 8 gust 17 Mainly Sunny 24 100.6 -21 59 -27 -30
7:00 NNW 18 gust 29 Mainly Clear 24 100.4 -21 60 -27 -35
6:00 NNW 16 gust 34 Clear 24 100.4 -22 58 -28 -35
5:00 NNW 28 gust 39 Drifting Snow 24 100.3 -21 57 -28 -37
4:00 NNW 25 gust 44 Drifting Snow 19 100.2 -20 56 -27 -35
3:00 NNW 22 gust 33 Drifting Snow 19 100.3 -18 55 -25 -32
2:00 NNW 29 gust 45 Blowing Snow 10 100.3 -18 57 -25 -33
1:00 NNW 30 gust 47 Blowing Snow 6 100.4 -19 60 -25 -34
0:00 N 32 gust 45 Blowing Snow 4 100.4 -19 67 -23 -35
17 January 2020
23:00 N 32 gust 46 Blowing Snow 4 100.4 -18 65 -23 -33
22:00 N 29 gust 43 Blowing Snow 4 100.5 -18 67 -23 -33
21:00 N 29 gust 46 Blowing Snow 4 100.5 -17 71 -21 -31

Zoom-in to make a selection

Map of Atlantic - Newfoundland marine weather areas Banquereau - 44139 Blanc-Sablon Airport Cap Whittle Chevery Natashquan Airport Heath Point Îles de la Madeleine Airport Miscou Island Eskasoni (First Nations) Grand Étang Ingonish Beach North Mountain St.Paul Island J.A. Douglas McCurdy Sydney Airport Charlottetown Airport East Point North Cape Argentia Bonavista Burgeo Cape Race Corner Brook Daniel's Harbour Englee Ferolle Point La Scie Port aux Basques Rocky Harbour Sagona Island St. Anthony Airport St. John's Int'l Airport St. Lawrence Stephenville Airport Twillingate Winterland Branch Hill Wreckhouse Grates Cove Pool's Island Marticot Island Long Pond Cartwright Airport Mary's Harbour
Legend:
buoy Buoy
land station Land Station

Atlantic - Newfoundland Area

Another Region

What we are doing

Date modified: